Time;durP1;ratioP1;P1;durP2;ratioP2;P2;SDS_P1;SDS_P2;PMS_P1;PMS_P2;Temp;Humidity;BMP_temperature;BMP_pressure;BME280_temperature;BME280_humidity;BME280_pressure;Samples;Min_cycle;Max_cycle;Signal;HPM_P1;HPM_P2
2022/03/10 03:10:02;;;;;;;22.67;16.13;;;-1.10;11.90;;;;;;5152201;27;21138;-62
2022/03/10 03:12:28;;;;;;;23.93;16.57;;;-0.70;1.00;;;;;;5152249;27;20228;-61
2022/03/10 03:14:54;;;;;;;21.63;16.17;;;-0.60;1.00;;;;;;5152380;27;20176;-61
2022/03/10 03:17:20;;;;;;;22.17;13.90;;;-0.70;99.90;;;;;;5152057;27;20171;-61
2022/03/10 03:19:45;;;;;;;20.07;15.53;;;-0.70;1.00;;;;;;5135355;27;20200;-61
2022/03/10 03:22:11;;;;;;;22.17;14.53;;;-0.70;99.90;;;;;;5131712;27;20621;-60
2022/03/10 03:24:37;;;;;;;23.63;15.43;;;-0.80;99.90;;;;;;5131445;27;20172;-61
2022/03/10 03:27:03;;;;;;;19.33;14.47;;;-0.90;99.90;;;;;;5131011;27;20235;-62
2022/03/10 03:29:29;;;;;;;23.50;15.77;;;-0.90;99.90;;;;;;5131040;27;20688;-61
2022/03/10 03:31:55;;;;;;;21.70;15.77;;;-0.90;99.90;;;;;;5130949;27;20517;-61
2022/03/10 03:34:21;;;;;;;21.20;14.47;;;-1.00;1.00;;;;;;5129713;27;20659;-61
2022/03/10 03:36:48;;;;;;;23.53;15.47;;;-1.10;99.90;;;;;;5129799;27;20176;-62
2022/03/10 03:39:13;;;;;;;21.27;14.37;;;-1.20;99.90;;;;;;5130934;27;20290;-63
2022/03/10 03:41:40;;;;;;;21.17;15.23;;;-1.10;99.90;;;;;;5131486;27;20661;-63
2022/03/10 03:44:07;;;;;;;25.93;16.70;;;-1.10;99.90;;;;;;5130843;27;20309;-63
2022/03/10 03:46:33;;;;;;;23.90;15.27;;;-1.30;46.70;;;;;;5129493;27;20229;-63
2022/03/10 03:48:59;;;;;;;21.90;15.60;;;-1.30;1.00;;;;;;5130782;27;20204;-63
2022/03/10 03:51:25;;;;;;;22.27;15.30;;;-1.30;99.90;;;;;;5130872;27;20199;-62
2022/03/10 03:53:51;;;;;;;22.87;15.63;;;-1.30;1.00;;;;;;5129757;27;20229;-62
2022/03/10 03:56:17;;;;;;;26.33;16.37;;;-1.30;1.00;;;;;;5131397;27;20187;-62
2022/03/10 03:58:43;;;;;;;19.83;15.40;;;-1.30;1.00;;;;;;5130801;27;20240;-63
2022/03/10 04:01:09;;;;;;;25.93;15.10;;;-1.40;1.00;;;;;;5130477;27;20232;-62
2022/03/10 04:03:35;;;;;;;22.10;15.50;;;-1.40;99.90;;;;;;5129263;27;20184;-62
2022/03/10 04:06:01;;;;;;;23.87;15.57;;;-1.50;1.00;;;;;;5130382;27;20240;-62
2022/03/10 04:08:27;;;;;;;18.67;15.40;;;-1.60;99.90;;;;;;5130177;27;20812;-62
2022/03/10 04:10:53;;;;;;;21.63;15.70;;;-1.70;99.90;;;;;;5117525;27;20184;-63
2022/03/10 04:13:21;;;;;;;23.23;15.60;;;-1.70;1.00;;;;;;5116978;27;20185;-63
2022/03/10 04:15:49;;;;;;;19.40;14.27;;;-1.80;22.30;;;;;;5116419;28;20251;-62
2022/03/10 04:18:16;;;;;;;21.07;15.57;;;-1.80;99.90;;;;;;5116622;28;20200;-62
2022/03/10 04:20:46;;;;;;;21.73;14.60;;;-1.70;1.00;;;;;;5116909;28;20535;-62
2022/03/10 04:23:13;;;;;;;23.00;15.67;;;-1.80;99.90;;;;;;5116668;28;20172;-61
2022/03/10 04:25:38;;;;;;;18.13;14.10;;;-1.80;1.00;;;;;;5116353;28;20248;-62
2022/03/10 04:28:04;;;;;;;21.40;16.03;;;-1.70;99.90;;;;;;5116274;28;20586;-62
2022/03/10 04:30:32;;;;;;;18.90;15.10;;;-1.70;99.90;;;;;;5115959;28;20180;-62
2022/03/10 04:32:59;;;;;;;20.47;14.77;;;-1.60;1.00;;;;;;5116132;28;20200;-62
2022/03/10 04:35:25;;;;;;;19.00;14.80;;;-1.60;99.90;;;;;;5116353;28;20180;-62
2022/03/10 04:37:53;;;;;;;23.83;15.57;;;-1.50;1.00;;;;;;5116456;28;20261;-62
2022/03/10 04:40:20;;;;;;;22.13;15.10;;;-1.60;1.00;;;;;;5117464;28;20152;-62
2022/03/10 04:42:48;;;;;;;21.87;15.27;;;-1.60;99.90;;;;;;5115869;28;20200;-62
2022/03/10 04:45:14;;;;;;;24.87;15.67;;;-1.60;1.00;;;;;;5115913;28;20227;-61
2022/03/10 04:47:41;;;;;;;23.53;14.23;;;-1.60;99.90;;;;;;5115859;28;20651;-62
2022/03/10 04:50:09;;;;;;;20.63;15.23;;;-1.70;99.90;;;;;;5115719;28;20192;-62
2022/03/10 04:52:35;;;;;;;19.83;14.97;;;-1.80;12.10;;;;;;5115875;28;20180;-61
2022/03/10 04:55:01;;;;;;;21.93;15.63;;;-1.80;95.90;;;;;;5116084;28;20177;-62
2022/03/10 04:57:28;;;;;;;21.27;15.43;;;-1.70;99.90;;;;;;5114413;28;20184;-62
2022/03/10 04:59:53;;;;;;;21.30;15.03;;;-1.80;99.90;;;;;;5114298;28;20245;-62
2022/03/10 05:02:19;;;;;;;20.50;14.77;;;-1.90;1.00;;;;;;5115666;28;20180;-62
2022/03/10 05:04:45;;;;;;;22.63;15.53;;;-1.80;1.00;;;;;;5115658;28;20183;-62
2022/03/10 05:07:11;;;;;;;24.23;15.67;;;-1.80;1.00;;;;;;5116019;28;20176;-62
2022/03/10 05:09:37;;;;;;;20.77;15.30;;;-1.80;1.00;;;;;;5115468;28;20254;-62
2022/03/10 05:12:03;;;;;;;20.60;15.47;;;-1.80;99.90;;;;;;5115609;28;20229;-62
2022/03/10 05:14:29;;;;;;;26.77;17.07;;;-1.80;1.00;;;;;;5115381;27;20173;-62
2022/03/10 05:16:55;;;;;;;20.17;15.73;;;-1.80;1.00;;;;;;5115544;28;20183;-62
2022/03/10 05:19:20;;;;;;;21.73;15.40;;;-1.90;99.90;;;;;;5115700;28;20208;-62
2022/03/10 05:21:46;;;;;;;21.27;14.50;;;-1.90;1.00;;;;;;5114371;28;20177;-62
2022/03/10 05:24:12;;;;;;;22.60;15.37;;;-2.00;99.90;;;;;;5115121;28;20168;-62
2022/03/10 05:26:38;;;;;;;20.80;15.63;;;-1.90;99.90;;;;;;5115406;28;20176;-62
2022/03/10 05:29:04;;;;;;;20.60;16.67;;;-1.90;99.90;;;;;;5114993;27;20284;-61
2022/03/10 05:31:30;;;;;;;24.40;17.10;;;-1.80;99.90;;;;;;5115008;27;20263;-62
2022/03/10 05:33:56;;;;;;;23.10;17.40;;;-1.80;99.90;;;;;;5114930;28;20204;-62
2022/03/10 05:36:22;;;;;;;24.93;18.03;;;-1.90;83.30;;;;;;5114970;28;20187;-63
2022/03/10 05:38:48;;;;;;;25.23;17.80;;;-1.90;11.60;;;;;;5113562;28;20708;-62
2022/03/10 05:41:14;;;;;;;24.57;17.43;;;-2.00;1.00;;;;;;5114814;28;20184;-62
2022/03/10 05:43:39;;;;;;;25.40;19.80;;;-2.00;99.90;;;;;;5114855;28;20248;-62
2022/03/10 05:46:05;;;;;;;27.67;17.67;;;-2.10;1.00;;;;;;5114853;28;20172;-62
2022/03/10 05:48:31;;;;;;;23.33;17.60;;;-2.00;1.00;;;;;;5115009;28;20196;-62
2022/03/10 05:50:58;;;;;;;27.43;17.33;;;-2.00;99.90;;;;;;5115031;28;20226;-62
2022/03/10 05:53:24;;;;;;;22.20;17.20;;;-1.80;99.90;;;;;;5114996;28;20180;-62
2022/03/10 05:55:50;;;;;;;24.80;17.67;;;-1.80;1.00;;;;;;5115026;28;20181;-62
2022/03/10 05:58:16;;;;;;;29.07;16.67;;;-1.80;99.90;;;;;;5114703;28;20218;-61
2022/03/10 06:00:41;;;;;;;23.90;17.20;;;-1.90;11.30;;;;;;5113460;28;20713;-62
2022/03/10 06:03:07;;;;;;;27.30;17.27;;;-1.90;99.90;;;;;;5113442;28;20214;-62
2022/03/10 06:05:33;;;;;;;25.87;17.57;;;-2.00;79.10;;;;;;5115279;28;20172;-63
2022/03/10 06:07:59;;;;;;;31.00;17.67;;;-2.10;1.00;;;;;;5114276;28;20298;-62
2022/03/10 06:10:25;;;;;;;28.20;17.50;;;-2.10;99.90;;;;;;5113212;28;20214;-62
2022/03/10 06:12:51;;;;;;;24.87;17.17;;;-2.20;99.90;;;;;;5114712;28;20180;-62
2022/03/10 06:15:17;;;;;;;21.67;17.17;;;-2.20;1.00;;;;;;5114301;28;20177;-62
2022/03/10 06:17:43;;;;;;;29.40;17.63;;;-2.20;21.60;;;;;;5112742;28;20207;-62
2022/03/10 06:20:11;;;;;;;31.67;18.37;;;-2.20;99.90;;;;;;5113974;28;20345;-62
2022/03/10 06:22:37;;;;;;;24.53;17.20;;;-2.20;99.90;;;;;;5114215;28;20172;-62
2022/03/10 06:25:04;;;;;;;28.90;16.83;;;-2.20;99.90;;;;;;5114375;28;20173;-61
2022/03/10 06:27:30;;;;;;;28.30;16.77;;;-2.20;99.90;;;;;;5113041;28;20259;-63
2022/03/10 06:29:56;;;;;;;23.43;16.17;;;-2.20;99.90;;;;;;5114759;28;20192;-62
2022/03/10 06:32:24;;;;;;;27.13;17.73;;;-2.20;99.90;;;;;;5114240;28;20199;-62
2022/03/10 06:34:51;;;;;;;22.10;16.93;;;-2.20;1.00;;;;;;5112908;28;20607;-62
2022/03/10 06:37:18;;;;;;;24.23;17.60;;;-2.10;1.00;;;;;;5112656;28;20181;-61
2022/03/10 06:39:44;;;;;;;24.83;17.40;;;-2.00;1.00;;;;;;5113991;28;20201;-62
2022/03/10 06:42:09;;;;;;;27.13;16.57;;;-1.90;1.00;;;;;;5114258;28;20182;-62
2022/03/10 06:44:36;;;;;;;23.57;16.77;;;-1.80;1.00;;;;;;5114282;28;20196;-61
2022/03/10 06:47:08;;;;;;;22.30;17.20;;;-1.70;1.00;;;;;;5114489;28;20164;-62
2022/03/10 06:49:33;;;;;;;25.77;18.17;;;-1.70;1.00;;;;;;5113824;28;20196;-61
2022/03/10 06:51:59;;;;;;;24.87;17.90;;;-1.60;1.00;;;;;;5113792;28;20213;-61
2022/03/10 06:54:25;;;;;;;26.40;17.57;;;-1.50;1.00;;;;;;5113784;28;20700;-62
2022/03/10 06:56:51;;;;;;;23.07;17.40;;;-1.40;1.00;;;;;;5113748;28;20255;-62
2022/03/10 06:59:17;;;;;;;25.50;17.37;;;-1.20;99.90;;;;;;5112349;28;20605;-62
2022/03/10 07:01:43;;;;;;;22.57;16.87;;;-1.10;99.90;;;;;;5113731;28;20172;-61
2022/03/10 07:04:09;;;;;;;26.53;17.13;;;-1.00;99.90;;;;;;5113672;28;20640;-62
2022/03/10 07:06:35;;;;;;;20.50;16.20;;;-0.90;99.90;;;;;;5114268;28;20195;-62
2022/03/10 07:09:00;;;;;;;22.00;16.63;;;-0.80;99.90;;;;;;5113699;28;20681;-62
2022/03/10 07:11:26;;;;;;;22.77;16.60;;;-0.70;99.90;;;;;;5113808;28;20176;-62
2022/03/10 07:13:52;;;;;;;22.30;17.73;;;-0.60;99.90;;;;;;5114179;28;20536;-62
2022/03/10 07:16:18;;;;;;;24.47;16.53;;;-0.50;99.90;;;;;;5113627;28;20176;-62
2022/03/10 07:18:50;;;;;;;25.23;18.80;;;-0.30;99.90;;;;;;5113321;28;20299;-62
2022/03/10 07:21:17;;;;;;;24.27;18.93;;;-0.20;99.90;;;;;;5113909;28;20157;-62
2022/03/10 07:23:43;;;;;;;26.63;20.90;;;0.00;99.90;;;;;;5113784;28;20541;-62
2022/03/10 07:26:10;;;;;;;29.17;19.73;;;0.10;1.00;;;;;;5113741;28;20173;-62
2022/03/10 07:28:36;;;;;;;25.87;19.70;;;0.30;1.00;;;;;;5112159;28;20201;-61
2022/03/10 07:31:02;;;;;;;26.03;18.53;;;0.40;1.00;;;;;;5113473;28;20183;-63
2022/03/10 07:33:28;;;;;;;27.33;17.67;;;0.60;1.00;;;;;;5113710;28;20181;-62
2022/03/10 07:35:54;;;;;;;26.67;18.53;;;0.90;99.90;;;;;;5113327;28;20184;-62
2022/03/10 07:38:19;;;;;;;24.37;18.00;;;1.00;1.00;;;;;;5113202;28;20571;-62
2022/03/10 07:40:45;;;;;;;21.47;17.33;;;1.20;1.00;;;;;;5112131;28;20229;-62
2022/03/10 07:43:11;;;;;;;27.87;17.70;;;1.40;99.90;;;;;;5113669;28;20181;-62
2022/03/10 07:45:37;;;;;;;25.50;18.03;;;1.70;1.00;;;;;;5115724;28;20180;-62
2022/03/10 07:48:03;;;;;;;20.10;16.27;;;1.80;99.90;;;;;;5117103;28;20203;-62
2022/03/10 07:50:28;;;;;;;19.63;16.57;;;2.00;1.00;;;;;;5117457;28;20187;-62
2022/03/10 07:52:54;;;;;;;24.50;17.20;;;2.40;99.90;;;;;;5115795;28;20188;-62
2022/03/10 07:55:20;;;;;;;21.27;16.87;;;2.70;99.90;;;;;;5117070;28;20173;-63
2022/03/10 07:57:45;;;;;;;25.43;17.87;;;2.90;1.00;;;;;;5115638;28;20204;-63
2022/03/10 08:00:12;;;;;;;21.07;15.97;;;3.10;99.90;;;;;;5117116;28;20189;-62
2022/03/10 08:02:37;;;;;;;27.50;16.70;;;3.40;99.90;;;;;;5115823;28;20181;-63
2022/03/10 08:05:04;;;;;;;24.97;16.47;;;3.60;99.90;;;;;;5116884;28;20177;-62
2022/03/10 08:07:32;;;;;;;19.77;15.83;;;3.70;1.00;;;;;;5116827;28;20205;-61
2022/03/10 08:10:06;;;;;;;24.70;15.63;;;3.90;1.00;;;;;;5116590;28;20200;-63
2022/03/10 08:12:33;;;;;;;22.70;16.83;;;4.20;1.00;;;;;;5115453;28;20180;-63
2022/03/10 08:14:59;;;;;;;20.63;17.50;;;4.50;1.00;;;;;;5116917;28;20184;-63
2022/03/10 08:17:25;;;;;;;20.97;16.77;;;4.70;99.90;;;;;;5115264;28;20172;-62
2022/03/10 08:19:52;;;;;;;21.50;16.43;;;4.90;1.00;;;;;;5115240;28;20620;-62
2022/03/10 08:22:18;;;;;;;20.00;15.20;;;5.00;99.90;;;;;;5116518;27;20153;-62
2022/03/10 08:24:45;;;;;;;21.80;16.17;;;5.20;99.90;;;;;;5116497;28;20566;-62
2022/03/10 08:27:11;;;;;;;22.67;15.97;;;6.10;99.90;;;;;;5117001;28;20523;-62
2022/03/10 08:29:37;;;;;;;23.10;15.83;;;7.80;56.50;;;;;;5116651;28;20192;-62
2022/03/10 08:32:03;;;;;;;18.43;14.10;;;9.70;1.00;;;;;;5116608;28;20204;-62
2022/03/10 08:34:29;;;;;;;17.88;13.15;;;11.50;1.00;;;;;;5116912;28;20199;-63
2022/03/10 08:36:56;;;;;;;19.10;13.50;;;13.10;1.00;;;;;;5116885;28;20509;-63
2022/03/10 08:39:21;;;;;;;20.38;14.05;;;13.90;1.00;;;;;;5116172;28;20204;-63
2022/03/10 08:41:49;;;;;;;17.38;13.57;;;14.60;1.00;;;;;;5114884;28;20279;-63
2022/03/10 08:44:15;;;;;;;19.13;12.65;;;15.10;1.00;;;;;;5114869;28;20172;-63
2022/03/10 08:46:41;;;;;;;19.38;13.35;;;15.10;1.00;;;;;;5116118;28;20567;-63
2022/03/10 08:49:07;;;;;;;21.98;14.15;;;15.50;1.00;;;;;;5116239;28;20199;-63
2022/03/10 08:51:33;;;;;;;17.70;12.23;;;16.40;1.00;;;;;;5115952;28;20173;-63
2022/03/10 08:53:59;;;;;;;16.30;12.43;;;17.00;1.00;;;;;;5115949;28;20172;-63
2022/03/10 08:56:24;;;;;;;18.63;13.13;;;17.70;1.00;;;;;;5116029;27;20179;-63
2022/03/10 08:58:50;;;;;;;20.08;13.18;;;18.30;1.00;;;;;;5115692;28;20201;-61
2022/03/10 09:01:16;;;;;;;17.60;13.07;;;18.70;1.00;;;;;;5116034;28;20168;-61
2022/03/10 09:03:42;;;;;;;19.25;13.10;;;19.10;1.00;;;;;;5114517;28;20168;-61
2022/03/10 09:06:12;;;;;;;19.75;13.68;;;19.10;1.00;;;;;;5115715;28;20247;-61
2022/03/10 09:08:38;;;;;;;15.13;12.57;;;18.80;1.00;;;;;;5114113;28;20223;-61
2022/03/10 09:11:04;;;;;;;17.42;12.35;;;18.70;1.00;;;;;;5115590;28;20752;-61
2022/03/10 09:13:30;;;;;;;17.88;12.63;;;18.60;1.00;;;;;;5114329;28;20197;-61
2022/03/10 09:15:56;;;;;;;17.30;13.95;;;18.20;1.00;;;;;;5115645;28;20168;-61
2022/03/10 09:18:21;;;;;;;17.40;13.13;;;17.80;1.00;;;;;;5115711;28;20249;-63
2022/03/10 09:20:47;;;;;;;18.13;12.43;;;17.40;1.00;;;;;;5115431;27;20529;-61
2022/03/10 09:23:13;;;;;;;18.17;12.93;;;16.80;1.00;;;;;;5115373;28;20720;-63
2022/03/10 09:25:38;;;;;;;17.25;13.15;;;16.50;1.00;;;;;;5115297;28;20267;-63
2022/03/10 09:28:04;;;;;;;18.63;13.85;;;15.90;1.00;;;;;;5115232;28;20536;-63
2022/03/10 09:30:30;;;;;;;17.17;12.93;;;15.20;1.00;;;;;;5115466;28;20173;-63
2022/03/10 09:32:57;;;;;;;19.67;13.73;;;14.40;1.00;;;;;;5113879;28;20224;-63
2022/03/10 09:35:24;;;;;;;21.10;13.77;;;13.90;1.00;;;;;;5115582;28;20280;-62
2022/03/10 09:37:49;;;;;;;17.63;13.70;;;13.50;1.00;;;;;;5115176;28;20665;-62
2022/03/10 09:40:15;;;;;;;17.33;13.40;;;13.20;1.00;;;;;;5115194;28;20199;-63
2022/03/10 09:42:42;;;;;;;18.50;13.95;;;13.10;1.00;;;;;;5113797;28;20273;-62
2022/03/10 09:45:10;;;;;;;21.48;14.70;;;12.80;1.00;;;;;;5115207;28;20257;-62
2022/03/10 09:47:41;;;;;;;16.70;12.65;;;12.60;1.00;;;;;;5114904;28;20261;-63
2022/03/10 09:50:10;;;;;;;21.13;14.73;;;12.50;1.00;;;;;;5115351;28;20321;-62
2022/03/10 09:52:36;;;;;;;21.83;13.25;;;12.50;1.00;;;;;;5114830;28;20169;-63
2022/03/10 09:55:03;;;;;;;20.80;14.63;;;12.50;1.00;;;;;;5113475;28;20260;-62
2022/03/10 09:57:29;;;;;;;19.73;13.68;;;12.40;1.00;;;;;;5114554;28;20173;-62
2022/03/10 09:59:58;;;;;;;18.38;13.85;;;12.50;1.00;;;;;;5114562;28;20191;-63
2022/03/10 10:02:25;;;;;;;21.92;13.85;;;12.60;1.00;;;;;;5113299;28;20176;-63
2022/03/10 10:04:51;;;;;;;19.73;14.05;;;12.60;1.00;;;;;;5114537;28;20218;-63
2022/03/10 10:07:22;;;;;;;22.90;14.95;;;12.70;1.00;;;;;;5113954;28;20169;-63
2022/03/10 10:09:54;;;;;;;21.77;13.43;;;12.80;1.00;;;;;;5114317;28;20204;-63
2022/03/10 10:12:24;;;;;;;19.95;14.20;;;12.90;1.00;;;;;;5114726;28;20175;-62
2022/03/10 10:14:50;;;;;;;18.65;13.23;;;12.90;1.00;;;;;;5114630;28;20630;-63
2022/03/10 10:17:24;;;;;;;19.13;13.18;;;12.90;1.00;;;;;;5114290;28;20169;-63
2022/03/10 10:19:55;;;;;;;16.90;12.63;;;12.90;1.00;;;;;;5114219;28;20282;-62
2022/03/10 10:22:23;;;;;;;19.25;13.05;;;12.90;1.00;;;;;;5114277;28;20201;-62
2022/03/10 10:24:57;;;;;;;15.68;11.95;;;13.00;1.00;;;;;;5114439;28;20164;-62
2022/03/10 10:27:29;;;;;;;17.05;11.27;;;13.20;1.00;;;;;;5114775;28;20152;-63
2022/03/10 10:29:57;;;;;;;15.18;10.30;;;13.40;1.00;;;;;;5114164;28;20611;-62
2022/03/10 10:32:48;;;;;;;12.63;9.57;;;13.40;1.00;;;;;;5114070;28;20172;-62
2022/03/10 10:35:20;;;;;;;11.73;9.10;;;13.50;1.00;;;;;;5114625;28;20187;-62
2022/03/10 10:37:58;;;;;;;12.80;9.23;;;13.60;1.00;;;;;;5114210;27;20365;-63
2022/03/10 10:40:28;;;;;;;10.52;8.45;;;13.80;1.00;;;;;;5114294;28;20148;-63
2022/03/10 10:42:55;;;;;;;10.93;8.57;;;14.00;1.00;;;;;;5113889;28;20518;-62
2022/03/10 10:45:33;;;;;;;10.35;7.78;;;14.10;1.00;;;;;;5113895;28;20251;-62
2022/03/10 10:48:11;;;;;;;9.82;7.47;;;14.20;1.00;;;;;;5113819;28;20161;-63
2022/03/10 10:50:40;;;;;;;8.30;7.00;;;14.30;1.00;;;;;;5113885;28;20157;-62
2022/03/10 10:53:07;;;;;;;9.35;6.57;;;14.40;1.00;;;;;;5114120;28;20245;-62
2022/03/10 10:55:38;;;;;;;7.95;6.90;;;14.50;1.00;;;;;;5114375;28;20196;-62
2022/03/10 10:58:13;;;;;;;7.63;6.47;;;14.60;1.00;;;;;;5113895;28;20556;-62
2022/03/10 11:00:47;;;;;;;6.45;5.75;;;14.70;1.00;;;;;;5113762;28;20179;-62
2022/03/10 11:03:21;;;;;;;6.40;5.60;;;14.80;1.00;;;;;;5113713;28;20167;-62
2022/03/10 11:05:48;;;;;;;9.75;6.07;;;15.00;1.00;;;;;;5113955;28;20213;-63
2022/03/10 11:08:15;;;;;;;6.57;4.93;;;15.00;1.00;;;;;;5113706;28;20207;-62
2022/03/10 11:10:42;;;;;;;5.82;4.90;;;14.90;1.00;;;;;;5113654;28;20535;-62
2022/03/10 11:13:07;;;;;;;5.68;4.97;;;15.00;1.00;;;;;;5114175;28;20179;-62
2022/03/10 11:15:33;;;;;;;6.85;5.10;;;15.20;1.00;;;;;;5112363;28;20172;-62
2022/03/10 11:18:02;;;;;;;6.47;4.93;;;15.40;1.00;;;;;;5113398;28;20265;-62
2022/03/10 11:20:29;;;;;;;5.90;4.72;;;15.50;1.00;;;;;;5116464;28;20649;-62
2022/03/10 11:23:13;;;;;;;8.98;4.55;;;15.40;1.00;;;;;;5117662;28;20662;-63
2022/03/10 11:26:03;;;;;;;6.72;5.00;;;15.50;1.00;;;;;;5117963;28;20156;-62
2022/03/10 11:28:31;;;;;;;4.85;4.32;;;15.90;1.00;;;;;;5117729;28;20196;-62
2022/03/10 11:31:00;;;;;;;5.55;4.45;;;16.20;1.00;;;;;;5117576;28;20176;-63
2022/03/10 11:33:36;;;;;;;5.95;4.72;;;16.40;1.00;;;;;;5117498;28;20180;-63
2022/03/10 11:36:19;;;;;;;5.22;4.68;;;16.60;1.00;;;;;;5117788;28;20569;-63
2022/03/10 11:39:04;;;;;;;5.55;4.50;;;16.60;1.00;;;;;;5117638;28;20243;-63
2022/03/10 11:41:44;;;;;;;4.32;3.92;;;16.80;1.00;;;;;;5117548;28;20217;-63
2022/03/10 11:44:10;;;;;;;7.05;4.45;;;16.90;1.00;;;;;;5117582;28;20179;-63
2022/03/10 11:46:55;;;;;;;6.45;4.60;;;17.10;1.00;;;;;;5117297;28;20555;-63
2022/03/10 11:49:21;;;;;;;6.18;4.70;;;17.10;1.00;;;;;;5117691;28;20200;-63
2022/03/10 11:51:56;;;;;;;6.07;4.25;;;17.20;1.00;;;;;;5115865;28;20186;-63
2022/03/10 11:54:27;;;;;;;6.13;4.50;;;17.30;1.00;;;;;;5117069;28;20680;-63
2022/03/10 11:56:54;;;;;;;4.70;4.25;;;17.50;1.00;;;;;;5117366;28;20183;-64
2022/03/10 11:59:32;;;;;;;6.07;4.60;;;17.70;1.00;;;;;;5116911;28;20200;-63
2022/03/10 12:01:59;;;;;;;5.45;4.20;;;18.00;1.00;;;;;;5117271;28;20208;-64
2022/03/10 12:04:54;;;;;;;4.68;4.05;;;18.20;1.00;;;;;;5116893;28;20248;-64
2022/03/10 12:07:28;;;;;;;5.07;4.05;;;18.40;1.00;;;;;;5116666;28;20654;-63
2022/03/10 12:10:14;;;;;;;5.15;4.07;;;18.60;1.00;;;;;;5116685;28;20210;-63
2022/03/10 12:12:45;;;;;;;4.10;3.42;;;18.60;1.00;;;;;;5116935;28;20184;-64
2022/03/10 12:15:23;;;;;;;4.57;3.78;;;18.80;1.00;;;;;;5116961;28;20172;-64
2022/03/10 12:17:52;;;;;;;3.83;3.42;;;19.10;1.00;;;;;;5116591;28;20171;-63
2022/03/10 12:20:18;;;;;;;3.97;3.65;;;19.20;1.00;;;;;;5117039;28;20169;-63
2022/03/10 12:22:58;;;;;;;6.53;3.55;;;19.30;1.00;;;;;;5116644;28;20180;-63
2022/03/10 12:25:24;;;;;;;3.90;3.40;;;19.40;1.00;;;;;;5116741;28;20229;-60
2022/03/10 12:27:51;;;;;;;3.20;2.90;;;19.40;1.00;;;;;;5116493;28;20164;-60
2022/03/10 12:30:25;;;;;;;3.00;2.80;;;19.40;1.00;;;;;;5116681;28;20169;-62
2022/03/10 12:32:52;;;;;;;3.05;2.72;;;19.30;1.00;;;;;;5116688;28;20157;-62
2022/03/10 12:35:20;;;;;;;2.88;2.67;;;19.30;1.00;;;;;;5115934;28;20658;-61
2022/03/10 12:37:49;;;;;;;2.88;2.67;;;19.20;1.00;;;;;;5116408;28;20176;-62
2022/03/10 12:40:28;;;;;;;2.83;2.45;;;19.30;1.00;;;;;;5116811;28;20192;-61
2022/03/10 12:43:08;;;;;;;3.42;2.60;;;19.20;1.00;;;;;;5116507;28;20167;-62
2022/03/10 12:45:48;;;;;;;2.50;2.30;;;19.20;1.00;;;;;;5115216;28;20176;-61
2022/03/10 12:48:50;;;;;;;3.03;2.72;;;19.20;1.00;;;;;;5114911;28;20250;-62
2022/03/10 12:51:21;;;;;;;3.17;2.70;;;19.60;1.00;;;;;;5116369;28;20582;-62
2022/03/10 12:53:46;;;;;;;2.88;2.65;;;19.60;1.00;;;;;;5116054;28;20173;-62
2022/03/10 12:56:13;;;;;;;3.05;2.70;;;19.80;1.00;;;;;;5114897;28;20179;-62
2022/03/10 12:58:38;;;;;;;5.95;3.00;;;19.70;1.00;;;;;;5115677;28;20200;-61
2022/03/10 13:01:09;;;;;;;3.45;3.03;;;19.80;1.00;;;;;;5116122;28;20609;-61
2022/03/10 13:03:56;;;;;;;5.50;3.20;;;19.80;1.00;;;;;;5115863;27;20160;-62
2022/03/10 13:06:29;;;;;;;4.05;2.92;;;20.20;1.00;;;;;;5115864;28;20153;-62
2022/03/10 13:08:59;;;;;;;5.82;3.17;;;20.20;1.00;;;;;;5115552;28;20212;-61
2022/03/10 13:11:33;;;;;;;6.10;3.22;;;20.40;1.00;;;;;;5115952;28;20252;-62
2022/03/10 13:14:07;;;;;;;4.47;3.00;;;20.30;1.00;;;;;;5115939;28;20173;-62
2022/03/10 13:16:41;;;;;;;3.20;2.90;;;20.40;1.00;;;;;;5115587;28;20189;-62
2022/03/10 13:19:27;;;;;;;3.40;2.72;;;20.40;1.00;;;;;;5115605;27;20226;-63
2022/03/10 13:21:55;;;;;;;3.03;2.72;;;20.00;1.00;;;;;;5115907;28;20157;-62
2022/03/10 13:24:46;;;;;;;4.47;2.88;;;20.30;1.00;;;;;;5115462;28;20684;-62
2022/03/10 13:27:14;;;;;;;3.45;2.80;;;20.00;1.00;;;;;;5115637;28;20171;-62
2022/03/10 13:29:48;;;;;;;2.88;2.67;;;19.90;1.00;;;;;;5115887;28;20193;-62
2022/03/10 13:32:24;;;;;;;4.53;3.17;;;19.90;1.00;;;;;;5115906;28;20172;-62
2022/03/10 13:34:53;;;;;;;4.47;2.80;;;20.10;1.00;;;;;;5115225;27;20172;-62
2022/03/10 13:37:19;;;;;;;2.78;2.58;;;20.10;1.00;;;;;;5116074;28;20672;-63
2022/03/10 13:39:47;;;;;;;3.22;2.85;;;20.00;1.00;;;;;;5115155;28;20303;-62
2022/03/10 13:42:28;;;;;;;3.05;2.72;;;19.80;1.00;;;;;;5114393;28;20176;-62
2022/03/10 13:45:01;;;;;;;3.42;3.08;;;19.90;1.00;;;;;;5115336;28;20180;-62
2022/03/10 13:47:27;;;;;;;5.07;3.08;;;19.60;1.00;;;;;;5115025;28;20172;-62
2022/03/10 13:49:57;;;;;;;3.05;2.78;;;19.70;1.00;;;;;;5114822;28;20196;-62
2022/03/10 13:52:23;;;;;;;4.32;3.05;;;19.90;1.00;;;;;;5114789;28;20251;-62
2022/03/10 13:54:54;;;;;;;3.75;3.33;;;19.80;1.00;;;;;;5114807;28;20689;-61
2022/03/10 13:57:21;;;;;;;5.07;3.63;;;19.80;1.00;;;;;;5114124;28;20173;-61
2022/03/10 13:59:47;;;;;;;3.92;3.20;;;19.30;1.00;;;;;;5115218;28;20196;-62
2022/03/10 14:02:24;;;;;;;3.50;2.90;;;18.90;1.00;;;;;;5115229;28;20251;-61
2022/03/10 14:04:50;;;;;;;10.38;6.72;;;19.00;1.00;;;;;;5115253;28;20153;-61
2022/03/10 14:07:16;;;;;;;7.82;5.63;;;19.10;1.00;;;;;;5114791;28;20164;-61
2022/03/10 14:09:43;;;;;;;3.33;3.03;;;19.10;1.00;;;;;;5114547;28;20219;-61
2022/03/10 14:12:16;;;;;;;2.63;2.40;;;19.10;1.00;;;;;;5114970;28;20503;-63
2022/03/10 14:14:55;;;;;;;6.15;2.90;;;19.40;1.00;;;;;;5114479;28;20175;-61
2022/03/10 14:17:42;;;;;;;3.33;2.92;;;19.20;1.00;;;;;;5114441;28;20163;-61
2022/03/10 14:20:09;;;;;;;2.83;2.63;;;19.10;1.00;;;;;;5114326;27;20246;-61
2022/03/10 14:22:35;;;;;;;3.60;2.60;;;19.20;1.00;;;;;;5114396;28;20173;-61
2022/03/10 14:25:02;;;;;;;3.10;2.80;;;19.10;1.00;;;;;;5114328;28;20251;-60
2022/03/10 14:27:28;;;;;;;3.95;3.20;;;18.60;1.00;;;;;;5114291;28;20168;-60
2022/03/10 14:30:01;;;;;;;3.95;3.17;;;18.10;1.00;;;;;;5114699;28;20191;-61
2022/03/10 14:32:30;;;;;;;5.50;2.92;;;17.90;1.00;;;;;;5114232;28;20165;-61
2022/03/10 14:34:57;;;;;;;5.57;2.72;;;17.30;1.00;;;;;;5114167;28;20668;-60
2022/03/10 14:37:23;;;;;;;5.43;3.20;;;17.10;1.00;;;;;;5114129;28;20226;-61
2022/03/10 14:39:50;;;;;;;4.50;3.13;;;17.30;1.00;;;;;;5114057;28;20717;-61
2022/03/10 14:42:16;;;;;;;3.65;3.08;;;17.60;1.00;;;;;;5114603;28;20263;-61
2022/03/10 14:44:42;;;;;;;4.35;3.20;;;17.40;1.00;;;;;;5114044;28;20165;-60
2022/03/10 14:47:12;;;;;;;3.75;3.35;;;17.40;1.00;;;;;;5114329;28;20187;-61
2022/03/10 14:49:37;;;;;;;3.97;3.50;;;17.50;1.00;;;;;;5113833;28;20691;-61
2022/03/10 14:52:03;;;;;;;4.47;3.35;;;17.60;1.00;;;;;;5114967;28;20176;-60
2022/03/10 14:54:29;;;;;;;3.88;3.20;;;17.70;1.00;;;;;;5113950;28;20168;-60
2022/03/10 14:56:54;;;;;;;4.82;3.20;;;17.70;1.00;;;;;;5113829;28;20176;-60
2022/03/10 14:59:20;;;;;;;4.32;3.10;;;17.70;1.00;;;;;;5113704;28;20212;-60
2022/03/10 15:01:46;;;;;;;4.10;3.03;;;17.70;1.00;;;;;;5113868;28;20672;-60
2022/03/10 15:04:12;;;;;;;6.47;3.58;;;17.70;1.00;;;;;;5114050;28;20537;-61
2022/03/10 15:06:38;;;;;;;4.97;3.50;;;17.70;1.00;;;;;;5113018;28;20638;-61
2022/03/10 15:09:06;;;;;;;4.97;3.83;;;17.60;1.00;;;;;;5115569;28;20311;-61
2022/03/10 15:11:32;;;;;;;7.93;4.03;;;17.50;1.00;;;;;;5114279;28;20229;-62
2022/03/10 15:13:58;;;;;;;5.40;3.80;;;17.50;1.00;;;;;;5112691;28;20219;-62
2022/03/10 15:16:23;;;;;;;5.15;3.75;;;17.40;1.00;;;;;;5113935;28;20176;-62
2022/03/10 15:18:49;;;;;;;5.10;3.97;;;17.20;1.00;;;;;;5113944;28;20204;-61
2022/03/10 15:21:15;;;;;;;4.53;3.97;;;16.90;1.00;;;;;;5113870;28;20195;-62
2022/03/10 15:23:45;;;;;;;5.65;3.88;;;16.80;1.00;;;;;;5113842;28;20171;-61
2022/03/10 15:26:11;;;;;;;7.80;4.10;;;16.70;1.00;;;;;;5112754;28;20188;-61
2022/03/10 15:28:37;;;;;;;5.78;4.30;;;16.60;1.00;;;;;;5112287;28;20686;-62
2022/03/10 15:31:03;;;;;;;5.47;4.82;;;16.40;1.00;;;;;;5114031;28;20188;-61
2022/03/10 15:33:33;;;;;;;6.30;4.35;;;16.30;1.00;;;;;;5112356;28;20261;-61
2022/03/10 15:35:59;;;;;;;7.05;4.82;;;16.20;1.00;;;;;;5113601;28;20195;-61
2022/03/10 15:38:25;;;;;;;5.63;4.80;;;16.10;1.00;;;;;;5113914;28;20208;-62
2022/03/10 15:40:51;;;;;;;6.18;5.03;;;16.00;1.00;;;;;;5113580;28;20173;-61
2022/03/10 15:43:18;;;;;;;6.10;4.72;;;15.90;1.00;;;;;;5113698;28;20169;-61
2022/03/10 15:45:45;;;;;;;5.95;4.72;;;15.80;1.00;;;;;;5113740;28;20175;-62
2022/03/10 15:48:11;;;;;;;6.97;4.72;;;15.80;1.00;;;;;;5113696;28;20178;-62
2022/03/10 15:50:37;;;;;;;7.22;4.60;;;15.70;1.00;;;;;;5113967;28;20173;-61
2022/03/10 15:53:03;;;;;;;9.10;4.13;;;15.60;1.00;;;;;;5113729;28;20173;-61
2022/03/10 15:55:34;;;;;;;8.13;4.85;;;15.60;1.00;;;;;;5114069;28;20220;-61
2022/03/10 15:58:01;;;;;;;6.53;4.80;;;15.50;1.00;;;;;;5113436;28;20588;-61